Archer — E5U2902 — position and weather

sailwx.info

Track history (hours):
 
Tides and Currents Weather Stations Pressure Air Temp Water Temp Dewpoint Dewpoint Depression Visibility Wind Speed Wind Dir Waves Ship Positions

Archer

Last reported at 2018-Jul-20 21:30 UTC. Time now 2018-Jul-20 21:49 UTC.
Position N 49°23' E 001°01'.

Length 101 m; draft 7.2 m.

Type: Cargo ship. MMSI: 518955000.

Date/timePositionNaut miles runAvg speedWind from/ knotsBaromVisibWave heightAir tempDewpointWater temp
2018-Jul-20 21:30N 49°23' E 001°01'0 0.0
2018-Jul-20 21:00N 49°23' E 001°01'0 0.0
2018-Jul-20 20:30N 49°23' E 001°01'0 0.0
2018-Jul-20 20:00N 49°23' E 001°01'0 0.1
2018-Jul-20 19:31N 49°23' E 001°01'3 6.1
2018-Jul-20 19:00N 49°21' E 000°57'510.6
2018-Jul-20 18:31N 49°26' E 000°56'3 6.7
2018-Jul-20 18:01N 49°27' E 000°51'3 6.4
2018-Jul-20 17:30N 49°25' E 000°48'611.1
2018-Jul-20 17:01N 49°30' E 000°46'4 8.5
2018-Jul-20 16:31N 49°29' E 000°40'5 9.5
2018-Jul-20 16:01N 49°26' E 000°34'5 9.3
2018-Jul-20 15:31N 49°28' E 000°28'612.8
2018-Jul-20 15:01N 49°26' E 000°18'612.1
2018-Jul-20 14:31N 49°26' E 000°09'611.5
2018-Jul-20 14:00N 49°28' E 000°01'611.8
2018-Jul-20 13:30N 49°30' W 000°08'510.1
2018-Jul-20 13:00N 49°34' W 000°12'611.8
2018-Jul-20 12:31N 49°40' W 000°11'612.0
2018-Jul-20 12:01N 49°46' W 000°10'612.0
2018-Jul-20 11:30N 49°52' W 000°09'612.2
2018-Jul-20 11:01N 49°58' W 000°08'612.2
2018-Jul-20 10:30N 50°04' W 000°07'612.2
2018-Jul-20 10:01N 50°10' W 000°06'612.1
2018-Jul-20 09:31N 50°16' W 000°05'612.1
2018-Jul-20 08:59N 50°23' W 000°04'611.8
2018-Jul-20 08:31N 50°28' W 000°01'713.0
2018-Jul-20 08:00N 50°30' E 000°09'612.8
2018-Jul-20 07:31N 50°32' E 000°19'612.7
2018-Jul-20 07:01N 50°35' E 000°28'612.2
2018-Jul-20 06:31N 50°37' E 000°36'611.9
2018-Jul-20 06:01N 50°40' E 000°44'611.4
2018-Jul-20 05:30N 50°43' E 000°52'510.8
2018-Jul-20 05:01N 50°46' E 000°59'510.5
2018-Jul-20 04:31N 50°49' E 001°06'510.4
2018-Jul-20 04:00N 50°53' E 001°12'510.4
2018-Jul-20 03:31N 50°56' E 001°19'510.8
2018-Jul-20 03:01N 50°60' E 001°24'611.8
2018-Jul-20 02:30N 51°04' E 001°31'713.2
2018-Jul-20 02:00N 51°09' E 001°38'713.5
2018-Jul-20 01:30N 51°14' E 001°45'713.7
2018-Jul-20 01:00N 51°19' E 001°52'713.5
2018-Jul-20 00:30N 51°25' E 001°58'713.0
2018-Jul-20 00:00N 51°30' E 002°04'612.4
2018-Jul-19 23:30N 51°35' E 002°10'612.3
2018-Jul-19 23:00N 51°40' E 002°16'611.9
2018-Jul-19 22:30N 51°45' E 002°22'611.5
2018-Jul-19 22:00N 51°49' E 002°28'611.2
2018-Jul-19 21:30N 51°53' E 002°34'511.0
2018-Jul-19 21:00N 51°57' E 002°40'510.8
2018-Jul-19 20:30N 52°02' E 002°46'510.5
2018-Jul-19 20:00N 52°05' E 002°51'510.4
2018-Jul-19 19:30N 52°09' E 002°57'510.3
2018-Jul-19 19:01N 52°13' E 003°02'510.4
2018-Jul-19 18:30N 52°17' E 003°07'510.9
2018-Jul-19 18:00N 52°22' E 003°13'611.3
2018-Jul-19 17:30N 52°26' E 003°19'611.8
2018-Jul-19 17:00N 52°31' E 003°25'612.2
2018-Jul-19 16:30N 52°36' E 003°31'612.5
2018-Jul-19 16:00N 52°40' E 003°37'612.8
2018-Jul-19 15:30N 52°45' E 003°44'713.0
2018-Jul-19 14:58N 52°51' E 003°51'613.0
2018-Jul-19 14:30N 52°55' E 003°58'1413.0
2018-Jul-19 13:25N 53°05' E 004°16'512.4
2018-Jul-19 13:00N 53°08' E 004°22'711.9
2018-Jul-19 12:24N 53°14' E 004°28'611.7
2018-Jul-19 11:53N 53°20' E 004°31'411.4
2018-Jul-19 11:30N 53°24' E 004°33'511.2
2018-Jul-19 11:00N 53°30' E 004°35'611.2
2018-Jul-19 10:30N 53°35' E 004°38'611.1
2018-Jul-19 09:57N 53°41' E 004°41'611.5
2018-Jul-19 09:26N 53°47' E 004°43'26710.8
2018-Jul-18 08:48N 57°26' E 009°12'3 9.9
2018-Jul-18 08:30N 57°27' E 009°17'510.9
2018-Jul-18 08:00N 57°30' E 009°26'510.7
2018-Jul-18 07:30N 57°33' E 009°34'711.0
2018-Jul-18 06:52N 57°36' E 009°46'510.7
2018-Jul-18 06:23N 57°39' E 009°54'510.6
2018-Jul-18 05:53N 57°42' E 010°02'410.4
2018-Jul-18 05:30N 57°44' E 010°09'511.1
2018-Jul-18 05:00N 57°46' E 010°18'611.3
2018-Jul-18 04:30N 57°49' E 010°27'510.8
2018-Jul-18 04:00N 57°49' E 010°38'511.0
2018-Jul-18 03:30N 57°47' E 010°47'611.8
2018-Jul-18 03:00N 57°43' E 010°56'612.2
2018-Jul-18 02:30N 57°39' E 011°04'612.0
2018-Jul-18 02:00N 57°35' E 011°12'611.6
2018-Jul-18 01:30N 57°31' E 011°21'611.4
2018-Jul-18 01:00N 57°27' E 011°27'611.6
2018-Jul-18 00:30N 57°21' E 011°31'611.6
2018-Jul-18 00:00N 57°16' E 011°34'611.6
2018-Jul-17 23:30N 57°10' E 011°38'611.9
2018-Jul-17 23:00N 57°05' E 011°41'611.6
2018-Jul-17 22:30N 56°59' E 011°44'611.3
2018-Jul-17 22:00N 56°54' E 011°48'611.3
2018-Jul-17 21:30N 56°49' E 011°52'611.1
2018-Jul-17 20:57N 56°43' E 011°56'611.3
2018-Jul-17 20:23N 56°36' E 011°58'811.6
2018-Jul-17 19:40N 56°28' E 012°01'3111.2
2018-Jul-17 16:57N 56°05' E 012°37'511.6
2018-Jul-17 16:30N 56°01' E 012°41'611.3
2018-Jul-17 16:00N 55°55' E 012°45'511.0
2018-Jul-17 15:30N 55°50' E 012°46'611.1
2018-Jul-17 15:00N 55°45' E 012°51'610.8
2018-Jul-17 14:30N 55°40' E 012°56'5 9.4
2018-Jul-17 14:00N 55°36' E 012°52'611.3
2018-Jul-17 13:30N 55°32' E 012°46'611.2
2018-Jul-17 13:00N 55°27' E 012°42'611.5
2018-Jul-17 12:30N 55°21' E 012°40'5 9.5
2018-Jul-17 12:00N 55°17' E 012°45'611.5
2018-Jul-17 11:30N 55°16' E 012°55'611.6
2018-Jul-17 11:00N 55°15' E 013°05'611.5
2018-Jul-17 10:30N 55°15' E 013°15'711.7
2018-Jul-17 09:52N 55°15' E 013°28'511.7
2018-Jul-17 09:28N 55°15' E 013°36'711.8
2018-Jul-17 08:52N 55°14' E 013°49'511.9
2018-Jul-17 08:28N 55°14' E 013°57'612.2
2018-Jul-17 08:00N 55°14' E 014°07'711.4
2018-Jul-17 07:24N 55°16' E 014°19'512.2
2018-Jul-17 07:00N 55°19' E 014°25'612.3
2018-Jul-17 06:30N 55°23' E 014°32'611.6
2018-Jul-17 06:00N 55°26' E 014°41'612.0
2018-Jul-17 05:30N 55°26' E 014°52'612.0
2018-Jul-17 05:00N 55°27' E 015°02'611.7
2018-Jul-17 04:30N 55°27' E 015°13'611.6
2018-Jul-17 04:00N 55°28' E 015°23'611.5
2018-Jul-17 03:30N 55°28' E 015°33'611.6
2018-Jul-17 03:00N 55°29' E 015°43'611.5
2018-Jul-17 02:30N 55°29' E 015°53'611.6
2018-Jul-17 02:00N 55°29' E 016°04'611.6
2018-Jul-17 01:30N 55°30' E 016°14'611.8
2018-Jul-17 01:00N 55°30' E 016°24'611.8
2018-Jul-17 00:30N 55°30' E 016°35'1211.8
2018-Jul-16 23:30N 55°31' E 016°55'611.7
2018-Jul-16 23:00N 55°32' E 017°06'611.7
2018-Jul-16 22:30N 55°32' E 017°16'611.8
2018-Jul-16 22:00N 55°33' E 017°26'811.8
2018-Jul-16 21:19N 55°33' E 017°41'411.7
2018-Jul-16 21:00N 55°33' E 017°47'611.8
2018-Jul-16 20:30N 55°34' E 017°58'611.8
2018-Jul-16 20:00N 55°34' E 018°08'712.0
2018-Jul-16 19:25N 55°35' E 018°20'511.9
2018-Jul-16 19:00N 55°35' E 018°29'611.8
2018-Jul-16 18:30N 55°36' E 018°39'611.7
2018-Jul-16 18:00N 55°36' E 018°50'611.7
2018-Jul-16 17:30N 55°37' E 019°00'611.8
2018-Jul-16 17:00N 55°37' E 019°10'611.9
2018-Jul-16 16:30N 55°37' E 019°21'611.9
2018-Jul-16 16:00N 55°38' E 019°31'611.9
2018-Jul-16 15:30N 55°38' E 019°42'612.1
2018-Jul-16 15:00N 55°39' E 019°53'612.0
2018-Jul-16 14:28N 55°39' E 020°04'37 1.7
2018-Jul-15 16:54N 55°39' E 021°10'0 0.0
2018-Jul-15 16:25N 55°39' E 021°10'0 0.0
2018-Jul-15 15:59N 55°39' E 021°10'0 0.0
2018-Jul-15 15:30N 55°39' E 021°10'0 0.0
2018-Jul-15 15:00N 55°39' E 021°10'0 0.0
2018-Jul-15 14:30N 55°39' E 021°10'0 0.0
2018-Jul-15 13:59N 55°39' E 021°10'0 0.0
2018-Jul-15 13:29N 55°39' E 021°10'0 0.0
2018-Jul-15 13:00N 55°39' E 021°10'0 0.0
2018-Jul-15 05:44N 55°39' E 021°10'0 0.0
2018-Jul-15 05:27N 55°39' E 021°10'0 0.0
2018-Jul-14 16:54N 55°39' E 021°10'0 0.0
2018-Jul-14 14:25N 55°39' E 021°10'0 0.0
2018-Jul-14 13:25N 55°39' E 021°10'0 0.0
2018-Jul-14 13:00N 55°39' E 021°10'0 0.0
2018-Jul-14 12:29N 55°39' E 021°10'0 0.0
2018-Jul-14 11:57N 55°39' E 021°10'5 1.7
2018-Jul-14 09:09N 55°43' E 021°06'310.5
2018-Jul-14 08:51N 55°43' E 021°01'1011.7
2018-Jul-14 07:58N 55°39' E 020°44'612.1
2018-Jul-14 07:28N 55°37' E 020°34'612.2
2018-Jul-14 07:00N 55°35' E 020°25'612.0
2018-Jul-14 06:30N 55°33' E 020°15'612.0
2018-Jul-14 06:00N 55°31' E 020°05'612.1
2018-Jul-14 05:30N 55°28' E 019°55'612.1
2018-Jul-14 05:00N 55°26' E 019°45'612.1
2018-Jul-14 04:30N 55°23' E 019°35'612.2
2018-Jul-14 04:00N 55°21' E 019°25'612.1
2018-Jul-14 03:30N 55°19' E 019°15'712.0
2018-Jul-14 02:56N 55°16' E 019°04'512.3
2018-Jul-14 02:30N 55°15' E 018°56'612.5
2018-Jul-14 02:00N 55°12' E 018°45'612.4
2018-Jul-14 01:30N 55°10' E 018°36'612.5
2018-Jul-14 01:00N 55°07' E 018°26'612.6
2018-Jul-14 00:30N 55°05' E 018°15'612.4
2018-Jul-14 00:01N 55°03' E 018°05'612.3
2018-Jul-13 23:30N 55°01' E 017°55'612.2
2018-Jul-13 23:00N 54°58' E 017°45'5612.4
2018-Jul-13 18:30N 54°44' E 016°11'4311.7
2018-Jul-13 14:47N 54°38' E 014°57'412.3
2018-Jul-13 14:27N 54°37' E 014°50'1212.2
2018-Jul-13 13:28N 54°35' E 014°30'1612.3
2018-Jul-13 12:12N 54°39' E 014°04'312.5
2018-Jul-13 12:00N 54°40' E 013°59'1512.7
2018-Jul-13 10:47N 54°44' E 013°34'612.9
2018-Jul-13 10:18N 54°45' E 013°23'412.7
2018-Jul-13 10:00N 54°45' E 013°16'612.7
2018-Jul-13 09:29N 54°46' E 013°05'1012.7
2018-Jul-13 08:44N 54°46' E 012°48'412.6
2018-Jul-13 08:26N 54°44' E 012°43'512.9
2018-Jul-13 08:00N 54°41' E 012°35'612.7
2018-Jul-13 07:30N 54°38' E 012°26'611.8
2018-Jul-13 07:00N 54°33' E 012°19'712.2
2018-Jul-13 06:25N 54°27' E 012°14'611.6
2018-Jul-13 05:55N 54°24' E 012°05'512.6
2018-Jul-13 05:30N 54°24' E 011°56'612.7
2018-Jul-13 05:00N 54°25' E 011°45'713.0
2018-Jul-13 04:30N 54°28' E 011°35'712.9
2018-Jul-13 03:58N 54°31' E 011°25'612.3
2018-Jul-13 03:30N 54°33' E 011°15'612.8
2018-Jul-13 03:00N 54°35' E 011°05'713.5
2018-Jul-13 02:30N 54°34' E 010°53'713.6
2018-Jul-13 02:01N 54°34' E 010°42'713.1
2018-Jul-13 01:31N 54°32' E 010°31'612.6
2018-Jul-13 01:01N 54°30' E 010°21'510.7
2018-Jul-13 00:30N 54°26' E 010°14'510.2
2018-Jul-13 00:00N 54°22' E 010°09'1 1.3
2018-Jul-12 23:30N 54°22' E 010°08'3 5.3
2018-Jul-12 23:00N 54°22' E 010°04'4 7.5
2018-Jul-12 22:31N 54°20' E 009°58'1 1.9
2018-Jul-12 22:00N 54°20' E 009°56'4 7.9
2018-Jul-12 21:30N 54°22' E 009°50'4 8.4
2018-Jul-12 21:00N 54°20' E 009°43'4 7.2
2018-Jul-12 20:31N 54°17' E 009°39'4 7.8
2018-Jul-12 20:00N 54°14' E 009°36'4 7.1
2018-Jul-12 19:31N 54°11' E 009°31'4 7.9
2018-Jul-12 19:00N 54°10' E 009°25'4 8.0
2018-Jul-12 18:30N 54°07' E 009°20'4 7.9
2018-Jul-12 18:00N 54°04' E 009°19'4 7.1
2018-Jul-12 17:30N 54°00' E 009°18'4 8.1
2018-Jul-12 17:01N 53°57' E 009°14'4 8.2
2018-Jul-12 16:31N 53°54' E 009°09'1 1.1
2018-Jul-12 16:00N 53°53' E 009°08'3 5.4
2018-Jul-12 15:30N 53°53' E 009°04'5 9.8
2018-Jul-12 15:00N 53°51' E 008°56'510.2
2018-Jul-12 14:30N 53°50' E 008°48'510.3
2018-Jul-12 14:00N 53°54' E 008°41'5 9.8
2018-Jul-12 13:30N 53°58' E 008°36'510.4
2018-Jul-12 13:00N 53°59' E 008°27'510.6
2018-Jul-12 12:30N 53°59' E 008°18'510.8
2018-Jul-12 12:00N 53°59' E 008°09'611.7
2018-Jul-12 11:29N 53°58' E 007°59'612.3
2018-Jul-12 11:00N 53°58' E 007°49'612.7
2018-Jul-12 10:30N 53°57' E 007°38'713.0
2018-Jul-12 10:00N 54°03' E 007°33'713.1
2018-Jul-12 09:30N 54°09' E 007°27'713.3
2018-Jul-12 09:00N 54°09' E 007°16'713.3
2018-Jul-12 08:30N 54°09' E 007°05'713.4
2018-Jul-12 08:00N 54°09' E 006°53'713.4
2018-Jul-12 07:28N 54°08' E 006°41'713.5
2018-Jul-12 06:57N 54°08' E 006°29'613.4
2018-Jul-12 06:30N 54°08' E 006°19'713.4
2018-Jul-12 05:58N 54°07' E 006°06'613.2
2018-Jul-12 05:29N 54°06' E 005°56'612.9
2018-Jul-12 05:00N 54°05' E 005°45'612.7
2018-Jul-12 04:30N 54°05' E 005°35'612.7
2018-Jul-12 04:00N 54°04' E 005°24'612.5
2018-Jul-12 03:30N 54°03' E 005°13'612.3
2018-Jul-12 03:00N 54°02' E 005°03'612.1
2018-Jul-12 02:29N 54°02' E 004°52'812.2
2018-Jul-12 01:51N 54°04' E 004°39'411.9
2018-Jul-12 01:30N 54°04' E 004°32'611.7
2018-Jul-12 01:00N 54°04' E 004°22'611.7
2018-Jul-12 00:29N 54°03' E 004°12'611.7
2018-Jul-11 23:59N 54°02' E 004°02'611.8
2018-Jul-11 23:28N 54°02' E 003°52'611.9
2018-Jul-11 23:00N 54°01' E 003°43'912.0
2018-Jul-11 22:14N 53°60' E 003°27'5012.2
2018-Jul-11 18:08N 53°47' E 002°05'1212.5
2018-Jul-11 17:10N 53°43' E 001°45'312.5
2018-Jul-11 16:58N 53°42' E 001°41'812.4
2018-Jul-11 16:18N 53°40' E 001°28'412.4
2018-Jul-11 16:00N 53°39' E 001°22'612.3
2018-Jul-11 15:30N 53°37' E 001°12'612.3
2018-Jul-11 15:00N 53°36' E 001°02'912.1
2018-Jul-11 14:15N 53°35' E 000°47'312.0
2018-Jul-11 13:59N 53°34' E 000°42'9 1.4
2018-Jul-11 07:47N 53°36' E 000°27'  
Track history (hours):
 
Tides and Currents Weather Stations Pressure Air Temp Water Temp Dewpoint Dewpoint Depression Visibility Wind Speed Wind Dir Waves Ship Positions

Archer

Last reported at 2018-Jul-20 21:30 UTC. Time now 2018-Jul-20 21:49 UTC.
Position N 49°23' E 001°01'.

Length 101 m; draft 7.2 m.

Type: Cargo ship. MMSI: 518955000.

Date/timePositionNaut miles runAvg speedWind from/ knotsBaromVisibWave heightAir tempDewpointWater temp
2018-Jul-20 21:30N 49°23' E 001°01'0 0.0
2018-Jul-20 21:00N 49°23' E 001°01'0 0.0
2018-Jul-20 20:30N 49°23' E 001°01'0 0.0
2018-Jul-20 20:00N 49°23' E 001°01'0 0.1
2018-Jul-20 19:31N 49°23' E 001°01'3 6.1
2018-Jul-20 19:00N 49°21' E 000°57'510.6
2018-Jul-20 18:31N 49°26' E 000°56'3 6.7
2018-Jul-20 18:01N 49°27' E 000°51'3 6.4
2018-Jul-20 17:30N 49°25' E 000°48'611.1
2018-Jul-20 17:01N 49°30' E 000°46'4 8.5
2018-Jul-20 16:31N 49°29' E 000°40'5 9.5
2018-Jul-20 16:01N 49°26' E 000°34'5 9.3
2018-Jul-20 15:31N 49°28' E 000°28'612.8
2018-Jul-20 15:01N 49°26' E 000°18'612.1
2018-Jul-20 14:31N 49°26' E 000°09'611.5
2018-Jul-20 14:00N 49°28' E 000°01'611.8
2018-Jul-20 13:30N 49°30' W 000°08'510.1
2018-Jul-20 13:00N 49°34' W 000°12'611.8
2018-Jul-20 12:31N 49°40' W 000°11'612.0
2018-Jul-20 12:01N 49°46' W 000°10'612.0
2018-Jul-20 11:30N 49°52' W 000°09'612.2
2018-Jul-20 11:01N 49°58' W 000°08'612.2
2018-Jul-20 10:30N 50°04' W 000°07'612.2
2018-Jul-20 10:01N 50°10' W 000°06'612.1
2018-Jul-20 09:31N 50°16' W 000°05'612.1
2018-Jul-20 08:59N 50°23' W 000°04'611.8
2018-Jul-20 08:31N 50°28' W 000°01'713.0
2018-Jul-20 08:00N 50°30' E 000°09'612.8
2018-Jul-20 07:31N 50°32' E 000°19'612.7
2018-Jul-20 07:01N 50°35' E 000°28'612.2
2018-Jul-20 06:31N 50°37' E 000°36'611.9
2018-Jul-20 06:01N 50°40' E 000°44'611.4
2018-Jul-20 05:30N 50°43' E 000°52'510.8
2018-Jul-20 05:01N 50°46' E 000°59'510.5
2018-Jul-20 04:31N 50°49' E 001°06'510.4
2018-Jul-20 04:00N 50°53' E 001°12'510.4
2018-Jul-20 03:31N 50°56' E 001°19'510.8
2018-Jul-20 03:01N 50°60' E 001°24'611.8
2018-Jul-20 02:30N 51°04' E 001°31'713.2
2018-Jul-20 02:00N 51°09' E 001°38'713.5
2018-Jul-20 01:30N 51°14' E 001°45'713.7
2018-Jul-20 01:00N 51°19' E 001°52'713.5
2018-Jul-20 00:30N 51°25' E 001°58'713.0
2018-Jul-20 00:00N 51°30' E 002°04'612.4
2018-Jul-19 23:30N 51°35' E 002°10'612.3
2018-Jul-19 23:00N 51°40' E 002°16'611.9
2018-Jul-19 22:30N 51°45' E 002°22'611.5
2018-Jul-19 22:00N 51°49' E 002°28'611.2
2018-Jul-19 21:30N 51°53' E 002°34'511.0
2018-Jul-19 21:00N 51°57' E 002°40'510.8
2018-Jul-19 20:30N 52°02' E 002°46'510.5
2018-Jul-19 20:00N 52°05' E 002°51'510.4
2018-Jul-19 19:30N 52°09' E 002°57'510.3
2018-Jul-19 19:01N 52°13' E 003°02'510.4
2018-Jul-19 18:30N 52°17' E 003°07'510.9
2018-Jul-19 18:00N 52°22' E 003°13'611.3
2018-Jul-19 17:30N 52°26' E 003°19'611.8
2018-Jul-19 17:00N 52°31' E 003°25'612.2
2018-Jul-19 16:30N 52°36' E 003°31'612.5
2018-Jul-19 16:00N 52°40' E 003°37'612.8
2018-Jul-19 15:30N 52°45' E 003°44'713.0
2018-Jul-19 14:58N 52°51' E 003°51'613.0
2018-Jul-19 14:30N 52°55' E 003°58'1413.0
2018-Jul-19 13:25N 53°05' E 004°16'512.4
2018-Jul-19 13:00N 53°08' E 004°22'711.9
2018-Jul-19 12:24N 53°14' E 004°28'611.7
2018-Jul-19 11:53N 53°20' E 004°31'411.4
2018-Jul-19 11:30N 53°24' E 004°33'511.2
2018-Jul-19 11:00N 53°30' E 004°35'611.2
2018-Jul-19 10:30N 53°35' E 004°38'611.1
2018-Jul-19 09:57N 53°41' E 004°41'611.5
2018-Jul-19 09:26N 53°47' E 004°43'26710.8
2018-Jul-18 08:48N 57°26' E 009°12'3 9.9
2018-Jul-18 08:30N 57°27' E 009°17'510.9
2018-Jul-18 08:00N 57°30' E 009°26'510.7
2018-Jul-18 07:30N 57°33' E 009°34'711.0
2018-Jul-18 06:52N 57°36' E 009°46'510.7
2018-Jul-18 06:23N 57°39' E 009°54'510.6
2018-Jul-18 05:53N 57°42' E 010°02'410.4
2018-Jul-18 05:30N 57°44' E 010°09'511.1
2018-Jul-18 05:00N 57°46' E 010°18'611.3
2018-Jul-18 04:30N 57°49' E 010°27'510.8
2018-Jul-18 04:00N 57°49' E 010°38'511.0
2018-Jul-18 03:30N 57°47' E 010°47'611.8
2018-Jul-18 03:00N 57°43' E 010°56'612.2
2018-Jul-18 02:30N 57°39' E 011°04'612.0
2018-Jul-18 02:00N 57°35' E 011°12'611.6
2018-Jul-18 01:30N 57°31' E 011°21'611.4
2018-Jul-18 01:00N 57°27' E 011°27'611.6
2018-Jul-18 00:30N 57°21' E 011°31'611.6
2018-Jul-18 00:00N 57°16' E 011°34'611.6
2018-Jul-17 23:30N 57°10' E 011°38'611.9
2018-Jul-17 23:00N 57°05' E 011°41'611.6
2018-Jul-17 22:30N 56°59' E 011°44'611.3
2018-Jul-17 22:00N 56°54' E 011°48'611.3
2018-Jul-17 21:30N 56°49' E 011°52'611.1
2018-Jul-17 20:57N 56°43' E 011°56'611.3
2018-Jul-17 20:23N 56°36' E 011°58'811.6
2018-Jul-17 19:40N 56°28' E 012°01'3111.2
2018-Jul-17 16:57N 56°05' E 012°37'511.6
2018-Jul-17 16:30N 56°01' E 012°41'611.3
2018-Jul-17 16:00N 55°55' E 012°45'511.0
2018-Jul-17 15:30N 55°50' E 012°46'611.1
2018-Jul-17 15:00N 55°45' E 012°51'610.8
2018-Jul-17 14:30N 55°40' E 012°56'5 9.4
2018-Jul-17 14:00N 55°36' E 012°52'611.3
2018-Jul-17 13:30N 55°32' E 012°46'611.2
2018-Jul-17 13:00N 55°27' E 012°42'611.5
2018-Jul-17 12:30N 55°21' E 012°40'5 9.5
2018-Jul-17 12:00N 55°17' E 012°45'611.5
2018-Jul-17 11:30N 55°16' E 012°55'611.6
2018-Jul-17 11:00N 55°15' E 013°05'611.5
2018-Jul-17 10:30N 55°15' E 013°15'711.7
2018-Jul-17 09:52N 55°15' E 013°28'511.7
2018-Jul-17 09:28N 55°15' E 013°36'711.8
2018-Jul-17 08:52N 55°14' E 013°49'511.9
2018-Jul-17 08:28N 55°14' E 013°57'612.2
2018-Jul-17 08:00N 55°14' E 014°07'711.4
2018-Jul-17 07:24N 55°16' E 014°19'512.2
2018-Jul-17 07:00N 55°19' E 014°25'612.3
2018-Jul-17 06:30N 55°23' E 014°32'611.6
2018-Jul-17 06:00N 55°26' E 014°41'612.0
2018-Jul-17 05:30N 55°26' E 014°52'612.0
2018-Jul-17 05:00N 55°27' E 015°02'611.7
2018-Jul-17 04:30N 55°27' E 015°13'611.6
2018-Jul-17 04:00N 55°28' E 015°23'611.5
2018-Jul-17 03:30N 55°28' E 015°33'611.6
2018-Jul-17 03:00N 55°29' E 015°43'611.5
2018-Jul-17 02:30N 55°29' E 015°53'611.6
2018-Jul-17 02:00N 55°29' E 016°04'611.6
2018-Jul-17 01:30N 55°30' E 016°14'611.8
2018-Jul-17 01:00N 55°30' E 016°24'611.8
2018-Jul-17 00:30N 55°30' E 016°35'1211.8
2018-Jul-16 23:30N 55°31' E 016°55'611.7
2018-Jul-16 23:00N 55°32' E 017°06'611.7
2018-Jul-16 22:30N 55°32' E 017°16'611.8
2018-Jul-16 22:00N 55°33' E 017°26'811.8
2018-Jul-16 21:19N 55°33' E 017°41'411.7
2018-Jul-16 21:00N 55°33' E 017°47'611.8
2018-Jul-16 20:30N 55°34' E 017°58'611.8
2018-Jul-16 20:00N 55°34' E 018°08'712.0
2018-Jul-16 19:25N 55°35' E 018°20'511.9
2018-Jul-16 19:00N 55°35' E 018°29'611.8
2018-Jul-16 18:30N 55°36' E 018°39'611.7
2018-Jul-16 18:00N 55°36' E 018°50'611.7
2018-Jul-16 17:30N 55°37' E 019°00'611.8
2018-Jul-16 17:00N 55°37' E 019°10'611.9
2018-Jul-16 16:30N 55°37' E 019°21'611.9
2018-Jul-16 16:00N 55°38' E 019°31'611.9
2018-Jul-16 15:30N 55°38' E 019°42'612.1
2018-Jul-16 15:00N 55°39' E 019°53'612.0
2018-Jul-16 14:28N 55°39' E 020°04'37 1.7
2018-Jul-15 16:54N 55°39' E 021°10'0 0.0
2018-Jul-15 16:25N 55°39' E 021°10'0 0.0
2018-Jul-15 15:59N 55°39' E 021°10'0 0.0
2018-Jul-15 15:30N 55°39' E 021°10'0 0.0
2018-Jul-15 15:00N 55°39' E 021°10'0 0.0
2018-Jul-15 14:30N 55°39' E 021°10'0 0.0
2018-Jul-15 13:59N 55°39' E 021°10'0 0.0
2018-Jul-15 13:29N 55°39' E 021°10'0 0.0
2018-Jul-15 13:00N 55°39' E 021°10'0 0.0
2018-Jul-15 05:44N 55°39' E 021°10'0 0.0
2018-Jul-15 05:27N 55°39' E 021°10'0 0.0
2018-Jul-14 16:54N 55°39' E 021°10'0 0.0
2018-Jul-14 14:25N 55°39' E 021°10'0 0.0
2018-Jul-14 13:25N 55°39' E 021°10'0 0.0
2018-Jul-14 13:00N 55°39' E 021°10'0 0.0
2018-Jul-14 12:29N 55°39' E 021°10'0 0.0
2018-Jul-14 11:57N 55°39' E 021°10'5 1.7
2018-Jul-14 09:09N 55°43' E 021°06'310.5
2018-Jul-14 08:51N 55°43' E 021°01'1011.7
2018-Jul-14 07:58N 55°39' E 020°44'612.1
2018-Jul-14 07:28N 55°37' E 020°34'612.2
2018-Jul-14 07:00N 55°35' E 020°25'612.0
2018-Jul-14 06:30N 55°33' E 020°15'612.0
2018-Jul-14 06:00N 55°31' E 020°05'612.1
2018-Jul-14 05:30N 55°28' E 019°55'612.1
2018-Jul-14 05:00N 55°26' E 019°45'612.1
2018-Jul-14 04:30N 55°23' E 019°35'612.2
2018-Jul-14 04:00N 55°21' E 019°25'612.1
2018-Jul-14 03:30N 55°19' E 019°15'712.0
2018-Jul-14 02:56N 55°16' E 019°04'512.3
2018-Jul-14 02:30N 55°15' E 018°56'612.5
2018-Jul-14 02:00N 55°12' E 018°45'612.4
2018-Jul-14 01:30N 55°10' E 018°36'612.5
2018-Jul-14 01:00N 55°07' E 018°26'612.6
2018-Jul-14 00:30N 55°05' E 018°15'612.4
2018-Jul-14 00:01N 55°03' E 018°05'612.3
2018-Jul-13 23:30N 55°01' E 017°55'612.2
2018-Jul-13 23:00N 54°58' E 017°45'5612.4
2018-Jul-13 18:30N 54°44' E 016°11'4311.7
2018-Jul-13 14:47N 54°38' E 014°57'412.3
2018-Jul-13 14:27N 54°37' E 014°50'1212.2
2018-Jul-13 13:28N 54°35' E 014°30'1612.3
2018-Jul-13 12:12N 54°39' E 014°04'312.5
2018-Jul-13 12:00N 54°40' E 013°59'1512.7
2018-Jul-13 10:47N 54°44' E 013°34'612.9
2018-Jul-13 10:18N 54°45' E 013°23'412.7
2018-Jul-13 10:00N 54°45' E 013°16'612.7
2018-Jul-13 09:29N 54°46' E 013°05'1012.7
2018-Jul-13 08:44N 54°46' E 012°48'412.6
2018-Jul-13 08:26N 54°44' E 012°43'512.9
2018-Jul-13 08:00N 54°41' E 012°35'612.7
2018-Jul-13 07:30N 54°38' E 012°26'611.8
2018-Jul-13 07:00N 54°33' E 012°19'712.2
2018-Jul-13 06:25N 54°27' E 012°14'611.6
2018-Jul-13 05:55N 54°24' E 012°05'512.6
2018-Jul-13 05:30N 54°24' E 011°56'612.7
2018-Jul-13 05:00N 54°25' E 011°45'713.0
2018-Jul-13 04:30N 54°28' E 011°35'712.9
2018-Jul-13 03:58N 54°31' E 011°25'612.3
2018-Jul-13 03:30N 54°33' E 011°15'612.8
2018-Jul-13 03:00N 54°35' E 011°05'713.5
2018-Jul-13 02:30N 54°34' E 010°53'713.6
2018-Jul-13 02:01N 54°34' E 010°42'713.1
2018-Jul-13 01:31N 54°32' E 010°31'612.6
2018-Jul-13 01:01N 54°30' E 010°21'510.7
2018-Jul-13 00:30N 54°26' E 010°14'510.2
2018-Jul-13 00:00N 54°22' E 010°09'1 1.3
2018-Jul-12 23:30N 54°22' E 010°08'3 5.3
2018-Jul-12 23:00N 54°22' E 010°04'4 7.5
2018-Jul-12 22:31N 54°20' E 009°58'1 1.9
2018-Jul-12 22:00N 54°20' E 009°56'4 7.9
2018-Jul-12 21:30N 54°22' E 009°50'4 8.4
2018-Jul-12 21:00N 54°20' E 009°43'4 7.2
2018-Jul-12 20:31N 54°17' E 009°39'4 7.8
2018-Jul-12 20:00N 54°14' E 009°36'4 7.1
2018-Jul-12 19:31N 54°11' E 009°31'4 7.9
2018-Jul-12 19:00N 54°10' E 009°25'4 8.0
2018-Jul-12 18:30N 54°07' E 009°20'4 7.9
2018-Jul-12 18:00N 54°04' E 009°19'4 7.1
2018-Jul-12 17:30N 54°00' E 009°18'4 8.1
2018-Jul-12 17:01N 53°57' E 009°14'4 8.2
2018-Jul-12 16:31N 53°54' E 009°09'1 1.1
2018-Jul-12 16:00N 53°53' E 009°08'3 5.4
2018-Jul-12 15:30N 53°53' E 009°04'5 9.8
2018-Jul-12 15:00N 53°51' E 008°56'510.2
2018-Jul-12 14:30N 53°50' E 008°48'510.3
2018-Jul-12 14:00N 53°54' E 008°41'5 9.8
2018-Jul-12 13:30N 53°58' E 008°36'510.4
2018-Jul-12 13:00N 53°59' E 008°27'510.6
2018-Jul-12 12:30N 53°59' E 008°18'510.8
2018-Jul-12 12:00N 53°59' E 008°09'611.7
2018-Jul-12 11:29N 53°58' E 007°59'612.3
2018-Jul-12 11:00N 53°58' E 007°49'612.7
2018-Jul-12 10:30N 53°57' E 007°38'713.0
2018-Jul-12 10:00N 54°03' E 007°33'713.1
2018-Jul-12 09:30N 54°09' E 007°27'713.3
2018-Jul-12 09:00N 54°09' E 007°16'713.3
2018-Jul-12 08:30N 54°09' E 007°05'713.4
2018-Jul-12 08:00N 54°09' E 006°53'713.4
2018-Jul-12 07:28N 54°08' E 006°41'713.5
2018-Jul-12 06:57N 54°08' E 006°29'613.4
2018-Jul-12 06:30N 54°08' E 006°19'713.4
2018-Jul-12 05:58N 54°07' E 006°06'613.2
2018-Jul-12 05:29N 54°06' E 005°56'612.9
2018-Jul-12 05:00N 54°05' E 005°45'612.7
2018-Jul-12 04:30N 54°05' E 005°35'612.7
2018-Jul-12 04:00N 54°04' E 005°24'612.5
2018-Jul-12 03:30N 54°03' E 005°13'612.3
2018-Jul-12 03:00N 54°02' E 005°03'612.1
2018-Jul-12 02:29N 54°02' E 004°52'812.2
2018-Jul-12 01:51N 54°04' E 004°39'411.9
2018-Jul-12 01:30N 54°04' E 004°32'611.7
2018-Jul-12 01:00N 54°04' E 004°22'611.7
2018-Jul-12 00:29N 54°03' E 004°12'611.7
2018-Jul-11 23:59N 54°02' E 004°02'611.8
2018-Jul-11 23:28N 54°02' E 003°52'611.9
2018-Jul-11 23:00N 54°01' E 003°43'912.0
2018-Jul-11 22:14N 53°60' E 003°27'5012.2
2018-Jul-11 18:08N 53°47' E 002°05'1212.5
2018-Jul-11 17:10N 53°43' E 001°45'312.5
2018-Jul-11 16:58N 53°42' E 001°41'812.4
2018-Jul-11 16:18N 53°40' E 001°28'412.4
2018-Jul-11 16:00N 53°39' E 001°22'612.3
2018-Jul-11 15:30N 53°37' E 001°12'612.3
2018-Jul-11 15:00N 53°36' E 001°02'912.1
2018-Jul-11 14:15N 53°35' E 000°47'312.0
2018-Jul-11 13:59N 53°34' E 000°42'9 1.4
2018-Jul-11 07:47N 53°36' E 000°27'  

Dump ship's entire track history